createdAt,value
2022-12-26T00:00:05.934Z,1003.24
2022-12-26T00:03:06.009Z,1003.15
2022-12-26T00:06:05.884Z,1003.18
2022-12-26T00:09:05.894Z,1003.14
2022-12-26T00:12:05.890Z,1003.18
2022-12-26T00:15:05.891Z,1003.13
2022-12-26T00:18:05.901Z,1003.09
2022-12-26T00:21:05.896Z,1002.99
2022-12-26T00:24:05.899Z,1002.97
2022-12-26T00:27:05.897Z,1003.06
2022-12-26T00:30:05.891Z,1002.98
2022-12-26T00:33:05.890Z,1002.91
2022-12-26T00:36:05.888Z,1002.85
2022-12-26T00:39:05.897Z,1002.82
2022-12-26T00:42:05.916Z,1002.93
2022-12-26T00:45:05.891Z,1002.87
2022-12-26T00:48:05.900Z,1002.88
2022-12-26T00:51:05.899Z,1002.87
2022-12-26T00:54:05.895Z,1002.92
2022-12-26T00:57:05.898Z,1003.05
2022-12-26T01:00:05.906Z,1002.98
2022-12-26T01:03:05.908Z,1002.96
2022-12-26T01:06:05.917Z,1002.92
2022-12-26T01:09:05.898Z,1002.88
2022-12-26T01:12:05.899Z,1003.02
2022-12-26T01:15:05.907Z,1003.03
2022-12-26T01:18:05.916Z,1003.15
2022-12-26T01:21:05.897Z,1003.14
2022-12-26T01:24:05.896Z,1003.14
2022-12-26T01:27:05.896Z,1003.16
2022-12-26T01:30:05.899Z,1003.19
2022-12-26T01:33:05.895Z,1003.27
2022-12-26T01:36:05.898Z,1003.12
2022-12-26T01:39:05.913Z,1003.07
2022-12-26T01:42:05.904Z,1003.1
2022-12-26T01:45:05.910Z,1003.2
2022-12-26T01:48:05.916Z,1003.37
2022-12-26T01:51:05.912Z,1003.38
2022-12-26T01:54:38.730Z,1003.36
2022-12-26T01:57:05.903Z,1003.38
2022-12-26T02:00:05.904Z,1003.41
2022-12-26T02:03:05.963Z,1003.37
2022-12-26T02:06:05.913Z,1003.46
2022-12-26T02:09:05.912Z,1003.51
2022-12-26T02:12:33.434Z,1003.43
2022-12-26T02:15:05.946Z,1003.44
2022-12-26T02:18:05.916Z,1003.5
2022-12-26T02:21:05.920Z,1003.45
2022-12-26T02:24:05.931Z,1003.5
2022-12-26T02:27:05.925Z,1003.63
2022-12-26T02:30:05.923Z,1003.64
2022-12-26T02:33:05.929Z,1003.64
2022-12-26T02:36:05.927Z,1003.66
2022-12-26T02:39:42.182Z,1003.64
2022-12-26T02:42:05.921Z,1003.62
2022-12-26T02:45:05.927Z,1003.56
2022-12-26T02:48:05.931Z,1003.55
2022-12-26T02:51:05.935Z,1003.61
2022-12-26T02:54:05.936Z,1003.55
2022-12-26T02:57:05.927Z,1003.59
2022-12-26T03:00:05.930Z,1003.53
2022-12-26T03:03:05.994Z,1003.59
2022-12-26T03:06:05.935Z,1003.56
2022-12-26T03:09:05.931Z,1003.56
2022-12-26T03:12:05.938Z,1003.52
2022-12-26T03:15:05.961Z,1003.45
2022-12-26T03:18:05.923Z,1003.54
2022-12-26T03:21:05.941Z,1003.62
2022-12-26T03:24:05.934Z,1003.62
2022-12-26T03:27:05.934Z,1003.54
2022-12-26T03:30:05.927Z,1003.33
2022-12-26T03:33:05.933Z,1003.5
2022-12-26T03:36:05.926Z,1003.55
2022-12-26T03:39:05.931Z,1003.56
2022-12-26T03:42:05.928Z,1003.53
2022-12-26T03:45:05.934Z,1003.48
2022-12-26T03:48:05.920Z,1003.45
2022-12-26T03:51:05.924Z,1003.36
2022-12-26T03:54:05.956Z,1003.3
2022-12-26T03:57:05.935Z,1003.34
2022-12-26T04:00:05.934Z,1003.35
2022-12-26T04:03:05.946Z,1003.33
2022-12-26T04:06:05.935Z,1003.31
2022-12-26T04:09:05.941Z,1003.38
2022-12-26T04:12:05.931Z,1003.36
2022-12-26T04:15:05.936Z,1003.44
2022-12-26T04:18:05.938Z,1003.45
2022-12-26T04:21:05.931Z,1003.38
2022-12-26T04:24:05.947Z,1003.33
2022-12-26T04:27:05.929Z,1003.39
2022-12-26T04:30:05.927Z,1003.42
2022-12-26T04:33:05.929Z,1003.46
2022-12-26T04:36:05.961Z,1003.61
2022-12-26T04:39:05.941Z,1003.57
2022-12-26T04:42:05.937Z,1003.64
2022-12-26T04:45:05.929Z,1003.79
2022-12-26T04:48:05.938Z,1003.73
2022-12-26T04:51:05.950Z,1003.73
2022-12-26T04:54:05.945Z,1003.7
2022-12-26T04:57:05.954Z,1003.58
2022-12-26T05:00:05.940Z,1003.57
2022-12-26T05:03:05.961Z,1003.67
2022-12-26T05:06:05.937Z,1003.65
2022-12-26T05:09:05.948Z,1003.61
2022-12-26T05:12:05.952Z,1003.47
2022-12-26T05:15:05.950Z,1003.35
2022-12-26T05:18:05.948Z,1003.35
2022-12-26T05:21:05.948Z,1003.33
2022-12-26T05:24:05.939Z,1003.37
2022-12-26T05:27:05.952Z,1003.43
2022-12-26T05:30:05.947Z,1003.49
2022-12-26T05:33:05.946Z,1003.55
2022-12-26T05:36:05.946Z,1003.56
2022-12-26T05:39:05.947Z,1003.53
2022-12-26T05:42:05.946Z,1003.51
2022-12-26T05:45:05.943Z,1003.52
2022-12-26T05:48:05.954Z,1003.59
2022-12-26T05:51:05.943Z,1003.63
2022-12-26T05:54:05.943Z,1003.69
2022-12-26T05:57:05.952Z,1003.68
2022-12-26T06:00:05.950Z,1003.69
2022-12-26T06:03:06.054Z,1003.78
2022-12-26T06:06:05.963Z,1003.72
2022-12-26T06:09:05.957Z,1003.62
2022-12-26T06:12:05.956Z,1003.62
2022-12-26T06:15:05.963Z,1003.68
2022-12-26T06:18:05.974Z,1003.73
2022-12-26T06:21:05.955Z,1003.78
2022-12-26T06:24:05.949Z,1003.81
2022-12-26T06:27:05.997Z,1003.78
2022-12-26T06:30:05.961Z,1003.8
2022-12-26T06:33:05.958Z,1003.83
2022-12-26T06:36:05.994Z,1003.85
2022-12-26T06:39:05.961Z,1003.95
2022-12-26T06:42:05.958Z,1003.98
2022-12-26T06:45:05.960Z,1003.93
2022-12-26T06:48:05.955Z,1003.88
2022-12-26T06:51:05.959Z,1003.88
2022-12-26T06:54:05.950Z,1003.9
2022-12-26T06:57:05.946Z,1003.89
2022-12-26T07:00:05.954Z,1003.87
2022-12-26T07:03:06.009Z,1003.8
2022-12-26T07:06:05.952Z,1003.86
2022-12-26T07:09:05.966Z,1003.92
2022-12-26T07:12:05.970Z,1003.86
2022-12-26T07:15:05.949Z,1003.89
2022-12-26T07:18:05.954Z,1003.82
2022-12-26T07:21:05.957Z,1003.77
2022-12-26T07:24:05.961Z,1003.82
2022-12-26T07:27:05.952Z,1003.93
2022-12-26T07:30:05.963Z,1004.02
2022-12-26T07:33:05.973Z,1004.05
2022-12-26T07:36:05.948Z,1004.09
2022-12-26T07:39:05.956Z,1004.17
2022-12-26T07:42:05.953Z,1004.25
2022-12-26T07:45:05.950Z,1004.34
2022-12-26T07:48:05.947Z,1004.32
2022-12-26T07:51:05.954Z,1004.36
2022-12-26T07:54:10.844Z,1004.39
2022-12-26T07:57:30.245Z,1004.47
2022-12-26T08:00:05.959Z,1004.52
2022-12-26T08:03:07.935Z,1004.51
2022-12-26T08:06:05.964Z,1004.53
2022-12-26T08:09:05.990Z,1004.51
2022-12-26T08:12:05.965Z,1004.44
2022-12-26T08:15:05.957Z,1004.44
2022-12-26T08:18:05.956Z,1004.48
2022-12-26T08:21:05.956Z,1004.46
2022-12-26T08:24:05.950Z,1004.36
2022-12-26T08:27:05.959Z,1004.17
2022-12-26T08:30:05.955Z,1004.16
2022-12-26T08:33:05.960Z,1004.22
2022-12-26T08:36:05.965Z,1004.39
2022-12-26T08:39:05.957Z,1004.35
2022-12-26T08:42:05.958Z,1004.15
2022-12-26T08:45:05.957Z,1004.29
2022-12-26T08:48:05.957Z,1004.43
2022-12-26T08:51:05.967Z,1004.55
2022-12-26T08:54:05.947Z,1004.7
2022-12-26T08:57:05.956Z,1004.67
2022-12-26T09:00:05.966Z,1004.7
2022-12-26T09:03:05.987Z,1004.92
2022-12-26T09:06:06.602Z,1004.89
2022-12-26T09:09:05.957Z,1004.96
2022-12-26T09:12:05.964Z,1005
2022-12-26T09:15:05.959Z,1005.06
2022-12-26T09:18:05.956Z,1005.08
2022-12-26T09:21:05.985Z,1005.05
2022-12-26T09:24:05.957Z,1005.13
2022-12-26T09:27:05.954Z,1005.16
2022-12-26T09:30:05.957Z,1005.29
2022-12-26T09:33:05.961Z,1005.36
2022-12-26T09:36:09.591Z,1005.42
2022-12-26T09:39:05.978Z,1005.38
2022-12-26T09:42:05.964Z,1005.39
2022-12-26T09:45:05.965Z,1005.38
2022-12-26T09:48:05.963Z,1005.31
2022-12-26T09:51:05.965Z,1005.21
2022-12-26T09:54:05.959Z,1005.16
2022-12-26T09:57:08.652Z,1005.17
2022-12-26T10:00:05.957Z,1005.3
2022-12-26T10:03:05.963Z,1005.38
2022-12-26T10:06:05.963Z,1005.42
2022-12-26T10:09:05.956Z,1005.45
2022-12-26T10:12:05.979Z,1005.47
2022-12-26T10:15:05.965Z,1005.49
2022-12-26T10:18:05.961Z,1005.45
2022-12-26T10:21:05.973Z,1005.29
2022-12-26T10:24:05.963Z,1005.27
2022-12-26T10:27:05.961Z,1005.32
2022-12-26T10:30:05.995Z,1005.25
2022-12-26T10:33:05.977Z,1005.22
2022-12-26T10:36:05.963Z,1005.37
2022-12-26T10:39:05.973Z,1005.58
2022-12-26T10:42:05.967Z,1005.58
2022-12-26T10:45:05.971Z,1005.55
2022-12-26T10:48:05.977Z,1005.42
2022-12-26T10:51:05.988Z,1005.51
2022-12-26T10:54:05.978Z,1005.64
2022-12-26T10:57:05.980Z,1005.66
2022-12-26T11:00:06.010Z,1005.65
2022-12-26T11:03:06.146Z,1005.7
2022-12-26T11:06:08.376Z,1005.72
2022-12-26T11:09:05.977Z,1005.66
2022-12-26T11:12:05.988Z,1005.75
2022-12-26T11:15:05.987Z,1005.75
2022-12-26T11:18:06.040Z,1005.75
2022-12-26T11:21:10.933Z,1005.73
2022-12-26T11:24:05.979Z,1005.71
2022-12-26T11:27:11.130Z,1005.71
2022-12-26T11:30:05.989Z,1005.74
2022-12-26T11:33:10.100Z,1005.78
2022-12-26T11:36:05.996Z,1005.74
2022-12-26T11:39:05.983Z,1005.79
2022-12-26T11:42:05.992Z,1005.8
2022-12-26T11:45:05.980Z,1005.86
2022-12-26T11:48:05.984Z,1005.85
2022-12-26T11:51:05.982Z,1005.85
2022-12-26T11:54:05.988Z,1005.79
2022-12-26T11:57:05.994Z,1005.74
2022-12-26T12:00:05.994Z,1005.73
2022-12-26T12:03:06.007Z,1005.68
2022-12-26T12:06:05.997Z,1005.67
2022-12-26T12:09:06.376Z,1005.6
2022-12-26T12:12:06.012Z,1005.67
2022-12-26T12:15:05.994Z,1005.63
2022-12-26T12:18:05.981Z,1005.62
2022-12-26T12:21:06.005Z,1005.57
2022-12-26T12:24:05.985Z,1005.48
2022-12-26T12:27:06.002Z,1005.42
2022-12-26T12:30:06.005Z,1005.4
2022-12-26T12:33:05.998Z,1005.39
2022-12-26T12:36:05.984Z,1005.38
2022-12-26T12:39:05.987Z,1005.33
2022-12-26T12:42:05.998Z,1005.25
2022-12-26T12:45:06.022Z,1005.21
2022-12-26T12:48:05.994Z,1005.24
2022-12-26T12:51:06.001Z,1005.24
2022-12-26T12:54:05.998Z,1005.24
2022-12-26T12:57:05.994Z,1005.25
2022-12-26T13:00:05.992Z,1005.29
2022-12-26T13:03:06.094Z,1005.26
2022-12-26T13:06:06.005Z,1005.22
2022-12-26T13:09:06.017Z,1005.13
2022-12-26T13:12:05.996Z,1005.13
2022-12-26T13:15:06.003Z,1005.17
2022-12-26T13:18:06.011Z,1005.11
2022-12-26T13:21:06.021Z,1005.12
2022-12-26T13:24:06.032Z,1005.11
2022-12-26T13:27:06.017Z,1005.13
2022-12-26T13:30:05.999Z,1005.02
2022-12-26T13:33:06.035Z,1005.02
2022-12-26T13:36:06.029Z,1005.09
2022-12-26T13:39:06.019Z,1004.98
2022-12-26T13:42:06.002Z,1004.91
2022-12-26T13:45:06.022Z,1004.79
2022-12-26T13:48:06.012Z,1004.76
2022-12-26T13:51:06.018Z,1004.79
2022-12-26T13:54:06.014Z,1004.74
2022-12-26T13:57:06.020Z,1004.65
2022-12-26T14:00:06.017Z,1004.68
2022-12-26T14:03:19.394Z,1004.8
2022-12-26T14:06:06.014Z,1004.88
2022-12-26T14:09:06.065Z,1005.19
2022-12-26T14:12:06.018Z,1005.12
2022-12-26T14:15:06.035Z,1005.28
2022-12-26T14:18:06.110Z,1005.36
2022-12-26T14:21:06.036Z,1005.19
2022-12-26T14:24:06.037Z,1005.18
2022-12-26T14:27:06.052Z,1005.27
2022-12-26T14:30:06.039Z,1005.2
2022-12-26T14:33:06.041Z,1005.21
2022-12-26T14:36:06.041Z,1005.22
2022-12-26T14:39:06.031Z,1005.26
2022-12-26T14:42:06.045Z,1005.39
2022-12-26T14:45:06.040Z,1005.44
2022-12-26T14:48:06.033Z,1005.43
2022-12-26T14:51:06.038Z,1005.46
2022-12-26T14:54:06.028Z,1005.34
2022-12-26T14:57:06.040Z,1005.3
2022-12-26T15:00:06.044Z,1005.37
2022-12-26T15:03:06.060Z,1005.38
2022-12-26T15:06:06.051Z,1005.3
2022-12-26T15:09:06.049Z,1005.35
2022-12-26T15:12:06.043Z,1005.4
2022-12-26T15:15:06.040Z,1005.33
2022-12-26T15:18:06.046Z,1005.36
2022-12-26T15:21:06.053Z,1005.57
2022-12-26T15:24:06.047Z,1005.65
2022-12-26T15:27:06.045Z,1005.75
2022-12-26T15:30:06.038Z,1005.81
2022-12-26T15:33:06.055Z,1005.7
2022-12-26T15:36:06.043Z,1005.63
2022-12-26T15:39:06.047Z,1005.54
2022-12-26T15:42:06.056Z,1005.36
2022-12-26T15:45:06.048Z,1005.26
2022-12-26T15:48:06.043Z,1005.42
2022-12-26T15:51:06.048Z,1005.37
2022-12-26T15:54:06.052Z,1005.52
2022-12-26T15:57:06.050Z,1005.46
2022-12-26T16:00:06.050Z,1005.39
2022-12-26T16:03:06.109Z,1005.35
2022-12-26T16:06:06.050Z,1005.32
2022-12-26T16:09:06.046Z,1005.32
2022-12-26T16:12:06.046Z,1005.39
2022-12-26T16:15:06.050Z,1005.44
2022-12-26T16:18:06.044Z,1005.61
2022-12-26T16:21:06.048Z,1005.78
2022-12-26T16:24:06.052Z,1005.74
2022-12-26T16:27:06.064Z,1005.83
2022-12-26T16:30:11.490Z,1005.88
2022-12-26T16:33:06.073Z,1005.88
2022-12-26T16:36:06.055Z,1005.98
2022-12-26T16:39:06.053Z,1006.19
2022-12-26T16:42:06.052Z,1006.23
2022-12-26T16:45:06.062Z,1006.36
2022-12-26T16:48:06.060Z,1006.36
2022-12-26T16:51:06.079Z,1006.43
2022-12-26T16:54:06.058Z,1006.57
2022-12-26T16:57:06.065Z,1006.67
2022-12-26T17:00:06.058Z,1006.63
2022-12-26T17:03:06.111Z,1006.59
2022-12-26T17:06:06.058Z,1006.43
2022-12-26T17:09:06.066Z,1006.51
2022-12-26T17:12:06.061Z,1006.59
2022-12-26T17:15:06.046Z,1006.62
2022-12-26T17:18:06.066Z,1006.62
2022-12-26T17:21:06.072Z,1006.56
2022-12-26T17:24:06.081Z,1006.57
2022-12-26T17:27:06.075Z,1006.29
2022-12-26T17:30:06.065Z,1006.38
2022-12-26T17:33:06.065Z,1006.54
2022-12-26T17:39:06.063Z,1006.44
2022-12-26T17:42:06.072Z,1006.31
2022-12-26T17:45:06.084Z,1005.97
2022-12-26T17:48:06.068Z,1006.12
2022-12-26T17:51:06.078Z,1006.3
2022-12-26T17:54:06.079Z,1006.38
2022-12-26T17:57:06.075Z,1006.42
2022-12-26T18:00:06.078Z,1006.62
2022-12-26T18:03:06.118Z,1006.88
2022-12-26T18:06:06.065Z,1006.92
2022-12-26T18:09:06.080Z,1006.98
2022-12-26T18:12:06.079Z,1007.09
2022-12-26T18:15:06.103Z,1007.15
2022-12-26T18:18:06.091Z,1007.23
2022-12-26T18:21:06.074Z,1007.23
2022-12-26T18:24:06.075Z,1007.32
2022-12-26T18:27:06.066Z,1007.38
2022-12-26T18:30:06.067Z,1007.44
2022-12-26T18:33:06.070Z,1007.56
2022-12-26T18:36:07.858Z,1007.67
2022-12-26T18:39:06.085Z,1007.82
2022-12-26T18:42:06.077Z,1007.85
2022-12-26T18:45:06.079Z,1007.97
2022-12-26T18:48:06.075Z,1008.06
2022-12-26T18:51:06.077Z,1008.16
2022-12-26T18:54:06.071Z,1008.26
2022-12-26T18:57:06.074Z,1008.24
2022-12-26T19:00:06.070Z,1008.28
2022-12-26T19:03:06.076Z,1008.34
2022-12-26T19:06:06.083Z,1008.34
2022-12-26T19:09:06.079Z,1008.29
2022-12-26T19:12:06.075Z,1008.35
2022-12-26T19:15:06.079Z,1008.43
2022-12-26T19:18:06.106Z,1008.44
2022-12-26T19:21:06.085Z,1008.49
2022-12-26T19:24:06.084Z,1008.55
2022-12-26T19:27:06.104Z,1008.66
2022-12-26T19:30:06.079Z,1008.77
2022-12-26T19:33:06.097Z,1008.9
2022-12-26T19:36:06.086Z,1008.98
2022-12-26T19:39:06.088Z,1009.02
2022-12-26T19:42:06.084Z,1009.08
2022-12-26T19:45:06.081Z,1009.13
2022-12-26T19:48:06.085Z,1009.14
2022-12-26T19:51:06.087Z,1009.22
2022-12-26T19:54:06.092Z,1009.32
2022-12-26T19:57:06.087Z,1009.4
2022-12-26T20:00:06.100Z,1009.44
2022-12-26T20:03:06.111Z,1009.44
2022-12-26T20:06:06.096Z,1009.48
2022-12-26T20:09:06.096Z,1009.48
2022-12-26T20:12:06.107Z,1009.6
2022-12-26T20:15:06.100Z,1009.57
2022-12-26T20:18:06.148Z,1009.59
2022-12-26T20:21:06.114Z,1009.55
2022-12-26T20:24:06.096Z,1009.59
2022-12-26T20:27:06.092Z,1009.71
2022-12-26T20:30:06.097Z,1009.76
2022-12-26T20:33:06.100Z,1009.93
2022-12-26T20:36:06.120Z,1010.06
2022-12-26T20:39:06.098Z,1010.08
2022-12-26T20:42:06.102Z,1010.18
2022-12-26T20:45:06.098Z,1010.36
2022-12-26T20:48:06.090Z,1010.38
2022-12-26T20:51:06.099Z,1010.49
2022-12-26T20:54:06.122Z,1010.59
2022-12-26T20:57:06.102Z,1010.63
2022-12-26T21:00:06.281Z,1010.73
2022-12-26T21:03:06.115Z,1010.82
2022-12-26T21:06:06.104Z,1010.86
2022-12-26T21:09:06.112Z,1010.96
2022-12-26T21:12:06.099Z,1011.02
2022-12-26T21:15:06.097Z,1011.1
2022-12-26T21:18:06.108Z,1011.22
2022-12-26T21:21:06.114Z,1011.27
2022-12-26T21:24:06.114Z,1011.37
2022-12-26T21:27:06.121Z,1011.45
2022-12-26T21:30:06.114Z,1011.59
2022-12-26T21:33:06.113Z,1011.7
2022-12-26T21:36:06.167Z,1011.85
2022-12-26T21:39:06.129Z,1011.95
2022-12-26T21:42:06.152Z,1012.04
2022-12-26T21:45:06.128Z,1012.1
2022-12-26T21:48:06.125Z,1012.12
2022-12-26T21:51:06.137Z,1012.17
2022-12-26T21:54:06.139Z,1012.27
2022-12-26T21:57:06.127Z,1012.31
2022-12-26T22:00:06.137Z,1012.35
2022-12-26T22:03:06.143Z,1012.38
2022-12-26T22:06:06.147Z,1012.49
2022-12-26T22:09:06.130Z,1012.52
2022-12-26T22:12:06.134Z,1012.58
2022-12-26T22:15:06.135Z,1012.61
2022-12-26T22:18:06.145Z,1012.7
2022-12-26T22:21:06.145Z,1012.77
2022-12-26T22:24:06.141Z,1012.81
2022-12-26T22:27:06.136Z,1012.87
2022-12-26T22:30:06.139Z,1012.97
2022-12-26T22:33:06.136Z,1012.99
2022-12-26T22:36:06.136Z,1013.01
2022-12-26T22:39:06.135Z,1013.1
2022-12-26T22:42:06.143Z,1013.15
2022-12-26T22:45:06.162Z,1013.16
2022-12-26T22:48:06.157Z,1013.18
2022-12-26T22:51:06.160Z,1013.27
2022-12-26T22:54:06.148Z,1013.34
2022-12-26T22:57:06.155Z,1013.37
2022-12-26T23:00:08.992Z,1013.38
2022-12-26T23:03:06.192Z,1013.41
2022-12-26T23:06:06.161Z,1013.48
2022-12-26T23:09:06.159Z,1013.55
2022-12-26T23:12:06.172Z,1013.59
2022-12-26T23:15:06.155Z,1013.63
2022-12-26T23:18:06.159Z,1013.72
2022-12-26T23:21:06.160Z,1013.76
2022-12-26T23:24:06.156Z,1013.77
2022-12-26T23:27:11.720Z,1013.72
2022-12-26T23:30:06.145Z,1013.74
2022-12-26T23:33:06.162Z,1013.78
2022-12-26T23:36:06.157Z,1013.78
2022-12-26T23:39:06.157Z,1013.78
2022-12-26T23:42:06.156Z,1013.79
2022-12-26T23:45:06.153Z,1013.79
2022-12-26T23:48:06.175Z,1013.77
2022-12-26T23:51:06.178Z,1013.77
2022-12-26T23:54:06.152Z,1013.82
2022-12-26T23:57:06.149Z,1013.84
